Etusivu
METAR-TAF:

METAR-TAF

Lentoasemat :

Geilenkirchen, Saksa

Leveyspiiri: 50-57-39N, Pituuspiiri: 006-2-33E, korkeus merenpinnasta: 90 m

Tämänhetkinen sää

Tämä raportti tehtiin 26 minuuttia sitten, kello 03.50 UTC
Tuuli 4 kn etelästä
Lämpötila -1°C
Kosteus 86%
Ilmanpaine 1026 hPa
Näkyvyys 10 km tai enemmän
ei pilviä alle 1500 m:ssä eikä cumulonimbus-pilviä

METAR: ETNG 190350Z 18004KT CAVOK M01/M03 Q1026

Aika: 05:16 (04:16 UTC)

Sääennuste

Tämä raportti tehtiin 2 tuntia ja 16 minuuttia sitten, kello 02.00 UTC
Ennuste voimassa 19. päivästä klo 03 UTC - 19. päivään klo 18 UTC
Tuuli 3 kn eri suunnista
Näkyvyys 10 km tai enemmän
ei pilviä alle 1500 m:ssä eikä cumulonimbus-pilviä
Ajoittain
19. päivästä klo 13 UTC - 19. päivään klo 17 UTC
Tuuli 6 kn pohjoisen/luoteesta

TAF: ETNG 190200Z 1903/1918 VRB03KT CAVOK TEMPO 1913/1917 33006KT

Säähavainnot ja -ennusteet yli 4000 lentoasemalta (METAR- ja TAF-raportit).

Käytössä olevat sääasemat on merkitty karttaan keltaisilla ja punaisilla pisteillä.

Aseta hiiri pisteen päälle nähdäksesi sääaseman nimen.

Klikkaa sitten nähdäksesi säähavainnot ja -ennusteet.

Kartan vaihtaminen: klikkaa mustalla rastilla varustettuja vihreitä pisteitä, niin voit zoomata sisään; viivalla varustettua vihreää pistettä, niin voit zoomata ulos tai vihreitä nuolia, niin pääset viereisille kartoille.


METAR-TAF: